createdAt,value
2023-01-11T00:01:31.313Z,68.34
2023-01-11T00:03:58.857Z,68.97
2023-01-11T00:06:25.795Z,69.07
2023-01-11T00:08:52.718Z,68.27
2023-01-11T00:11:19.801Z,67.64
2023-01-11T00:13:46.785Z,69.82
2023-01-11T00:16:14.009Z,69.56
2023-01-11T00:18:41.358Z,70.18
2023-01-11T00:21:09.060Z,68.21
2023-01-11T00:23:37.409Z,68.68
2023-01-11T00:26:11.341Z,68.56
2023-01-11T00:28:38.298Z,70.21
2023-01-11T00:31:05.821Z,69.99
2023-01-11T00:33:33.134Z,69.89
2023-01-11T00:36:00.029Z,69.91
2023-01-11T00:38:47.014Z,69.99
2023-01-11T00:41:34.641Z,69.72
2023-01-11T00:44:20.944Z,69.79
2023-01-11T00:47:06.876Z,70.63
2023-01-11T00:49:33.792Z,69.58
2023-01-11T00:52:00.737Z,69.34
2023-01-11T00:54:27.916Z,70.04
2023-01-11T00:56:54.881Z,70.67
2023-01-11T00:59:21.873Z,70.18
2023-01-11T01:01:48.665Z,71.27
2023-01-11T01:04:15.525Z,71.70
2023-01-11T01:06:42.524Z,70.90
2023-01-11T01:09:09.703Z,71.43
2023-01-11T01:11:36.651Z,72.98
2023-01-11T01:14:22.537Z,72.50
2023-01-11T01:16:49.882Z,72.39
2023-01-11T01:19:16.819Z,71.98
2023-01-11T01:21:43.731Z,71.21
2023-01-11T01:24:10.717Z,71.38
2023-01-11T01:26:37.488Z,71.31
2023-01-11T01:29:04.541Z,72.35
2023-01-11T01:31:31.379Z,71.41
2023-01-11T01:33:58.508Z,71.47
2023-01-11T01:36:25.518Z,72.25
2023-01-11T01:38:52.413Z,70.84
2023-01-11T01:41:19.444Z,70.63
2023-01-11T01:43:55.666Z,68.17
2023-01-11T01:46:26.917Z,66.94
2023-01-11T01:49:17.464Z,67.29
2023-01-11T01:51:52.095Z,69.69
2023-01-11T01:54:24.995Z,68.89
2023-01-11T01:57:00.662Z,68.96
2023-01-11T01:59:29.808Z,70.02
2023-01-11T02:01:57.297Z,70.24
2023-01-11T02:04:30.996Z,70.64
2023-01-11T02:07:08.180Z,71.10
2023-01-11T02:10:01.629Z,71.47
2023-01-11T02:12:32.168Z,70.54
2023-01-11T02:15:03.328Z,70.58
2023-01-11T02:17:30.189Z,71.65
2023-01-11T02:20:00.707Z,70.69
2023-01-11T02:22:53.652Z,70.72
2023-01-11T02:25:26.492Z,70.90
2023-01-11T02:28:10.672Z,70.58
2023-01-11T02:30:46.873Z,71.30
2023-01-11T02:33:22.871Z,71.39
2023-01-11T02:35:54.492Z,71.83
2023-01-11T02:38:41.830Z,71.81
2023-01-11T02:41:57.906Z,72.70
2023-01-11T02:44:54.727Z,72.56
2023-01-11T02:47:30.593Z,72.15
2023-01-11T02:50:01.966Z,72.53
2023-01-11T02:52:39.573Z,73.23
2023-01-11T02:55:09.613Z,72.22
2023-01-11T02:57:39.853Z,72.10
2023-01-11T03:00:10.069Z,72.02
2023-01-11T03:02:37.167Z,71.87
2023-01-11T03:05:11.785Z,72.30
2023-01-11T03:08:07.211Z,72.65
2023-01-11T03:11:08.626Z,73.27
2023-01-11T03:14:01.721Z,73.54
2023-01-11T03:16:39.497Z,72.92
2023-01-11T03:19:36.919Z,71.70
2023-01-11T03:22:26.351Z,73.04
2023-01-11T03:25:02.037Z,73.17
2023-01-11T03:27:37.938Z,73.36
2023-01-11T03:30:19.767Z,73.44
2023-01-11T03:33:01.916Z,73.06
2023-01-11T03:35:55.442Z,73.72
2023-01-11T03:38:35.834Z,74.29
2023-01-11T03:41:08.320Z,74.08
2023-01-11T03:43:40.278Z,74.71
2023-01-11T03:46:12.309Z,73.69
2023-01-11T03:48:46.337Z,74.57
2023-01-11T03:51:18.694Z,74.61
2023-01-11T03:53:49.150Z,75.02
2023-01-11T03:56:20.276Z,75.50
2023-01-11T03:58:47.097Z,75.84
2023-01-11T04:01:14.205Z,75.31
2023-01-11T04:03:41.248Z,76.07
2023-01-11T04:06:11.419Z,75.57
2023-01-11T04:08:38.263Z,75.22
2023-01-11T04:11:05.553Z,75.79
2023-01-11T04:13:34.173Z,75.31
2023-01-11T04:16:01.139Z,76.12
2023-01-11T04:18:28.207Z,76.37
2023-01-11T04:20:55.328Z,76.60
2023-01-11T04:23:22.135Z,76.92
2023-01-11T04:25:49.025Z,75.70
2023-01-11T04:28:15.904Z,76.41
2023-01-11T04:30:42.663Z,76.49
2023-01-11T04:33:13.377Z,76.59
2023-01-11T04:35:40.816Z,75.93
2023-01-11T04:38:07.623Z,75.86
2023-01-11T04:40:34.496Z,76.34
2023-01-11T04:43:02.453Z,76.03
2023-01-11T04:45:30.371Z,76.71
2023-01-11T04:47:58.399Z,75.95
2023-01-11T04:50:26.790Z,75.13
2023-01-11T04:52:54.125Z,74.91
2023-01-11T04:55:20.929Z,73.80
2023-01-11T04:57:47.852Z,73.49
2023-01-11T05:00:16.061Z,73.81
2023-01-11T05:02:43.401Z,74.94
2023-01-11T05:05:11.621Z,75.74
2023-01-11T05:07:39.427Z,74.91
2023-01-11T05:10:06.768Z,74.82
2023-01-11T05:12:33.585Z,76.00
2023-01-11T05:15:00.457Z,75.73
2023-01-11T05:17:27.377Z,75.95
2023-01-11T05:19:54.394Z,76.86
2023-01-11T05:22:21.175Z,76.89
2023-01-11T05:24:47.934Z,77.12
2023-01-11T05:27:14.746Z,76.63
2023-01-11T05:29:41.507Z,75.68
2023-01-11T05:32:08.418Z,75.54
2023-01-11T05:34:35.369Z,76.09
2023-01-11T05:37:02.139Z,75.24
2023-01-11T05:39:29.004Z,74.74
2023-01-11T05:41:55.734Z,74.78
2023-01-11T05:44:40.919Z,75.02
2023-01-11T05:47:07.692Z,75.97
2023-01-11T05:49:34.587Z,76.51
2023-01-11T05:52:01.328Z,76.70
2023-01-11T05:54:28.115Z,76.87
2023-01-11T05:56:57.826Z,76.05
2023-01-11T05:59:26.953Z,76.76
2023-01-11T06:01:53.843Z,76.68
2023-01-11T06:04:20.737Z,76.91
2023-01-11T06:06:47.528Z,77.17
2023-01-11T06:09:14.235Z,77.03
2023-01-11T06:11:40.948Z,76.39
2023-01-11T06:14:07.789Z,76.97
2023-01-11T06:16:34.545Z,76.51
2023-01-11T06:19:01.281Z,76.98
2023-01-11T06:21:27.988Z,76.53
2023-01-11T06:23:55.454Z,77.29
2023-01-11T06:26:23.286Z,78.57
2023-01-11T06:28:51.162Z,78.53
2023-01-11T06:31:18.642Z,78.62
2023-01-11T06:33:46.440Z,79.06
2023-01-11T06:36:14.447Z,78.83
2023-01-11T06:38:41.996Z,78.88
2023-01-11T06:41:09.276Z,78.67
2023-01-11T06:43:38.099Z,78.14
2023-01-11T06:46:05.493Z,77.94
2023-01-11T06:48:32.363Z,77.98
2023-01-11T06:50:59.309Z,77.64
2023-01-11T06:53:28.806Z,77.82
2023-01-11T06:55:58.478Z,77.50
2023-01-11T06:58:26.594Z,77.69
2023-01-11T07:00:55.558Z,77.63
2023-01-11T07:03:24.596Z,77.76
2023-01-11T07:05:52.761Z,77.64
2023-01-11T07:08:19.989Z,77.23
2023-01-11T07:10:47.511Z,77.00
2023-01-11T07:13:17.693Z,76.56
2023-01-11T07:15:46.145Z,75.64
2023-01-11T07:18:13.042Z,76.40
2023-01-11T07:20:41.021Z,76.23
2023-01-11T07:23:07.853Z,76.22
2023-01-11T07:25:34.971Z,75.53
2023-01-11T07:28:04.987Z,74.81
2023-01-11T07:30:47.855Z,75.10
2023-01-11T07:33:21.702Z,74.95
2023-01-11T07:35:49.696Z,75.09
2023-01-11T07:38:16.794Z,74.73
2023-01-11T07:40:43.708Z,74.06
2023-01-11T07:43:18.326Z,73.59
2023-01-11T07:45:50.490Z,74.42
2023-01-11T07:48:25.416Z,74.79
2023-01-11T07:50:54.388Z,75.45
2023-01-11T07:53:21.507Z,75.25
2023-01-11T07:55:48.237Z,75.40
2023-01-11T07:58:15.790Z,75.91
2023-01-11T08:00:43.131Z,75.84
2023-01-11T08:03:10.580Z,75.16
2023-01-11T08:05:37.687Z,76.05
2023-01-11T08:08:05.493Z,77.05
2023-01-11T08:10:32.902Z,77.45
2023-01-11T08:13:18.434Z,76.93
2023-01-11T08:15:45.354Z,77.38
2023-01-11T08:18:12.739Z,77.19
2023-01-11T08:20:40.266Z,77.01
2023-01-11T08:23:09.614Z,76.82
2023-01-11T08:25:36.993Z,76.32
2023-01-11T08:28:06.266Z,76.44
2023-01-11T08:30:33.319Z,76.54
2023-01-11T08:33:04.248Z,76.53
2023-01-11T08:35:32.489Z,76.48
2023-01-11T08:37:59.228Z,76.55
2023-01-11T08:40:25.988Z,76.78
2023-01-11T08:42:56.962Z,76.17
2023-01-11T08:45:24.124Z,75.83
2023-01-11T08:47:52.018Z,74.90
2023-01-11T08:50:19.701Z,72.95
2023-01-11T08:52:47.652Z,72.54
2023-01-11T08:55:14.495Z,73.61
2023-01-11T08:57:41.227Z,74.65
2023-01-11T09:00:09.292Z,75.07
2023-01-11T09:02:36.208Z,74.57
2023-01-11T09:05:03.299Z,75.13
2023-01-11T09:07:30.094Z,75.58
2023-01-11T09:09:56.839Z,75.00
2023-01-11T09:12:23.747Z,75.07
2023-01-11T09:14:50.440Z,75.21
2023-01-11T09:17:18.978Z,75.61
2023-01-11T09:19:45.734Z,75.36
2023-01-11T09:22:12.557Z,75.39
2023-01-11T09:24:39.281Z,75.46
2023-01-11T09:27:06.344Z,75.78
2023-01-11T09:29:35.539Z,77.19
2023-01-11T09:32:04.020Z,75.15
2023-01-11T09:34:30.783Z,74.71
2023-01-11T09:37:00.629Z,73.23
2023-01-11T09:39:27.831Z,72.55
2023-01-11T09:42:11.788Z,73.86
2023-01-11T09:44:50.845Z,73.42
2023-01-11T09:47:29.561Z,72.21
2023-01-11T09:49:59.490Z,70.05
2023-01-11T09:52:30.187Z,69.43
2023-01-11T09:54:59.085Z,69.09
2023-01-11T09:57:46.353Z,70.25
2023-01-11T10:00:47.695Z,71.47
2023-01-11T10:03:36.202Z,68.60
2023-01-11T10:06:20.316Z,69.97
2023-01-11T10:18:32.084Z,71.74
2023-01-11T10:18:32.088Z,72.62
2023-01-11T10:21:15.102Z,74.03
2023-01-11T10:23:47.503Z,74.68
2023-01-11T10:26:27.469Z,75.67
2023-01-11T10:29:17.320Z,76.31
2023-01-11T10:32:13.763Z,76.47
2023-01-11T10:35:00.804Z,74.12
2023-01-11T10:37:56.136Z,72.79
2023-01-11T10:40:40.562Z,72.65
2023-01-11T10:43:20.274Z,72.60
2023-01-11T10:45:55.774Z,71.13
2023-01-11T10:48:34.593Z,71.85
2023-01-11T10:51:27.426Z,71.21
2023-01-11T10:54:15.468Z,70.87
2023-01-11T10:57:09.013Z,70.55
2023-01-11T10:59:50.913Z,70.59
2023-01-11T11:02:36.181Z,70.60
2023-01-11T11:05:27.335Z,71.72
2023-01-11T11:08:43.314Z,71.99
2023-01-11T11:11:22.633Z,71.83
2023-01-11T11:14:31.220Z,72.43
2023-01-11T11:17:18.302Z,75.84
2023-01-11T11:19:45.209Z,74.48
2023-01-11T11:22:12.684Z,74.91
2023-01-11T11:24:46.732Z,75.70
2023-01-11T11:27:41.993Z,76.19
2023-01-11T11:30:14.090Z,77.21
2023-01-11T11:32:51.600Z,77.71
2023-01-11T11:35:40.703Z,77.47
2023-01-11T11:38:23.648Z,77.50
2023-01-11T11:41:04.097Z,75.95
2023-01-11T11:43:33.048Z,75.21
2023-01-11T11:46:02.048Z,75.77
2023-01-11T11:48:32.205Z,75.90
2023-01-11T11:51:04.729Z,76.02
2023-01-11T11:53:46.118Z,75.43
2023-01-11T11:56:21.357Z,75.12
2023-01-11T11:58:48.387Z,75.17
2023-01-11T12:01:26.220Z,75.30
2023-01-11T12:03:57.434Z,75.16
2023-01-11T12:06:27.891Z,75.62
2023-01-11T12:08:55.846Z,74.60
2023-01-11T12:11:35.826Z,74.44
2023-01-11T12:14:04.395Z,74.93
2023-01-11T12:16:36.642Z,75.01
2023-01-11T12:19:03.602Z,75.04
2023-01-11T12:21:30.571Z,74.66
2023-01-11T12:24:17.446Z,74.57
2023-01-11T12:27:01.088Z,74.89
2023-01-11T12:29:39.908Z,75.07
2023-01-11T12:32:18.925Z,75.48
2023-01-11T12:35:04.287Z,73.80
2023-01-11T12:38:05.311Z,74.34
2023-01-11T12:40:43.983Z,74.36
2023-01-11T12:43:36.798Z,73.67
2023-01-11T12:46:06.639Z,74.18
2023-01-11T12:48:39.574Z,74.40
2023-01-11T12:52:03.985Z,76.06
2023-01-11T12:55:03.092Z,76.97
2023-01-11T12:57:56.509Z,75.99
2023-01-11T13:00:45.552Z,76.82
2023-01-11T13:03:38.140Z,77.06
2023-01-11T13:06:39.777Z,76.92
2023-01-11T13:09:29.204Z,76.95
2023-01-11T13:12:26.084Z,79.46
2023-01-11T13:15:20.031Z,77.99
2023-01-11T13:17:46.765Z,77.67
2023-01-11T13:20:34.273Z,77.41
2023-01-11T13:23:19.425Z,77.76
2023-01-11T13:25:49.453Z,78.84
2023-01-11T13:28:40.540Z,79.03
2023-01-11T13:31:11.195Z,78.95
2023-01-11T13:33:43.893Z,79.21
2023-01-11T13:36:23.263Z,80.00
2023-01-11T13:39:16.712Z,80.79
2023-01-11T13:41:49.052Z,80.65
2023-01-11T13:44:28.031Z,80.81
2023-01-11T13:47:19.352Z,82.03
2023-01-11T13:50:04.183Z,81.91
2023-01-11T13:52:44.222Z,81.71
2023-01-11T13:55:36.498Z,81.83
2023-01-11T13:58:10.436Z,82.20
2023-01-11T14:01:18.838Z,82.10
2023-01-11T14:03:56.887Z,82.07
2023-01-11T14:06:34.954Z,82.60
2023-01-11T14:09:16.823Z,82.40
2023-01-11T14:12:08.978Z,82.29
2023-01-11T14:14:51.009Z,83.04
2023-01-11T14:17:30.034Z,82.99
2023-01-11T14:20:02.594Z,83.60
2023-01-11T14:22:32.148Z,83.87
2023-01-11T14:25:22.775Z,84.29
2023-01-11T14:28:33.452Z,85.17
2023-01-11T14:31:12.251Z,85.41
2023-01-11T14:33:41.853Z,85.84
2023-01-11T14:36:39.725Z,85.93
2023-01-11T14:39:30.808Z,86.61
2023-01-11T14:42:19.026Z,87.25
2023-01-11T14:45:18.219Z,87.85
2023-01-11T14:48:06.824Z,88.15
2023-01-11T14:50:33.605Z,89.60
2023-01-11T14:53:04.686Z,90.23
2023-01-11T14:55:34.835Z,91.53
2023-01-11T14:58:04.981Z,92.37
2023-01-11T15:00:54.773Z,93.15
2023-01-11T15:03:21.416Z,93.59
2023-01-11T15:06:14.804Z,94.11
2023-01-11T15:09:00.474Z,93.61
2023-01-11T15:11:30.066Z,92.28
2023-01-11T15:14:03.673Z,92.15
2023-01-11T15:16:54.926Z,91.83
2023-01-11T15:19:29.555Z,91.36
2023-01-11T15:21:58.658Z,91.20
2023-01-11T15:24:43.073Z,91.47
2023-01-11T15:27:42.398Z,91.02
2023-01-11T15:30:29.481Z,91.36
2023-01-11T15:33:18.480Z,91.09
2023-01-11T15:35:57.568Z,91.14
2023-01-11T15:38:37.078Z,91.36
2023-01-11T15:41:29.418Z,91.17
2023-01-11T15:44:29.125Z,91.23
2023-01-11T15:47:24.686Z,91.38
2023-01-11T15:50:16.333Z,91.36
2023-01-11T15:53:13.460Z,91.22
2023-01-11T15:56:04.519Z,91.53
2023-01-11T15:58:54.450Z,91.83
2023-01-11T16:01:25.342Z,91.43
2023-01-11T16:04:01.571Z,91.56
2023-01-11T16:06:46.455Z,91.34
2023-01-11T16:09:57.825Z,91.76
2023-01-11T16:12:49.830Z,91.63
2023-01-11T16:15:25.872Z,91.75
2023-01-11T16:17:54.039Z,91.44
2023-01-11T16:20:20.779Z,91.86
2023-01-11T16:22:58.117Z,92.34
2023-01-11T16:25:30.332Z,91.87
2023-01-11T16:27:59.550Z,91.66
2023-01-11T16:30:28.146Z,91.57
2023-01-11T16:33:15.312Z,92.10
2023-01-11T16:35:42.610Z,91.62
2023-01-11T16:38:17.103Z,92.31
2023-01-11T16:40:49.100Z,92.34
2023-01-11T16:43:31.509Z,92.20
2023-01-11T16:45:58.641Z,92.18
2023-01-11T16:48:29.978Z,92.52
2023-01-11T16:51:04.797Z,93.29
2023-01-11T16:53:37.594Z,93.63
2023-01-11T16:56:09.188Z,93.09
2023-01-11T16:58:38.575Z,92.88
2023-01-11T17:01:08.111Z,92.70
2023-01-11T17:03:47.778Z,93.00
2023-01-11T17:06:15.087Z,92.64
2023-01-11T17:08:47.575Z,93.11
2023-01-11T17:11:23.659Z,93.37
2023-01-11T17:13:56.733Z,93.48
2023-01-11T17:16:28.100Z,93.90
2023-01-11T17:18:55.418Z,94.14
2023-01-11T17:21:27.513Z,94.27
2023-01-11T17:24:00.479Z,94.00
2023-01-11T17:26:58.225Z,94.05
2023-01-11T17:29:34.817Z,93.76
2023-01-11T17:32:04.580Z,93.98
2023-01-11T17:34:36.944Z,94.09
2023-01-11T17:37:10.802Z,93.59
2023-01-11T17:39:43.516Z,93.68
2023-01-11T17:42:32.858Z,93.50
2023-01-11T17:45:15.946Z,93.43
2023-01-11T17:47:51.706Z,93.79
2023-01-11T17:50:45.468Z,94.00
2023-01-11T17:53:21.986Z,95.33
2023-01-11T17:56:07.355Z,95.23
2023-01-11T17:58:35.943Z,95.13
2023-01-11T18:01:08.858Z,94.33
2023-01-11T18:03:52.718Z,94.64
2023-01-11T18:06:42.575Z,94.63
2023-01-11T18:09:24.518Z,95.01
2023-01-11T18:11:53.059Z,94.63
2023-01-11T18:14:25.597Z,94.70
2023-01-11T18:17:02.122Z,95.51
2023-01-11T18:19:41.562Z,95.89
2023-01-11T18:22:32.238Z,96.17
2023-01-11T18:25:04.272Z,96.65
2023-01-11T18:27:35.676Z,96.57
2023-01-11T18:30:07.970Z,95.77
2023-01-11T18:32:43.656Z,96.00
2023-01-11T18:35:19.041Z,95.92
2023-01-11T18:37:46.565Z,95.53
2023-01-11T18:40:15.141Z,95.80
2023-01-11T18:42:43.732Z,95.45
2023-01-11T18:45:11.852Z,95.42
2023-01-11T18:47:38.753Z,95.60
2023-01-11T18:50:06.236Z,95.17
2023-01-11T18:52:33.296Z,95.60
2023-01-11T18:55:00.166Z,95.43
2023-01-11T18:57:27.063Z,95.24
2023-01-11T18:59:55.635Z,95.16
2023-01-11T19:02:27.056Z,95.09
2023-01-11T19:04:56.304Z,95.23
2023-01-11T19:07:25.358Z,95.27
2023-01-11T19:09:54.921Z,94.93
2023-01-11T19:12:22.278Z,94.79
2023-01-11T19:14:49.268Z,95.37
2023-01-11T19:17:16.222Z,95.55
2023-01-11T19:19:43.444Z,95.55
2023-01-11T19:22:11.753Z,95.73
2023-01-11T19:24:39.907Z,95.37
2023-01-11T19:27:10.029Z,95.81
2023-01-11T19:29:36.991Z,95.81
2023-01-11T19:32:03.985Z,95.34
2023-01-11T19:34:33.918Z,95.67
2023-01-11T19:37:01.224Z,95.81
2023-01-11T19:39:28.234Z,95.74
2023-01-11T19:42:00.004Z,95.30
2023-01-11T19:44:33.570Z,96.01
2023-01-11T19:47:11.533Z,95.62
2023-01-11T19:49:40.523Z,95.47
2023-01-11T19:52:14.396Z,95.31
2023-01-11T19:54:43.473Z,96.20
2023-01-11T19:57:18.121Z,95.60
2023-01-11T19:59:45.337Z,95.49
2023-01-11T20:02:13.942Z,96.19
2023-01-11T20:04:41.385Z,96.12
2023-01-11T20:07:15.697Z,96.18
2023-01-11T20:09:43.689Z,95.73
2023-01-11T20:12:15.761Z,96.02
2023-01-11T20:14:44.980Z,95.98
2023-01-11T20:17:12.627Z,96.69
2023-01-11T20:19:41.876Z,96.53
2023-01-11T20:22:20.693Z,96.66
2023-01-11T20:37:55.336Z,95.44
2023-01-11T20:40:22.738Z,95.12
2023-01-11T20:42:49.759Z,95.04
2023-01-11T20:45:16.975Z,94.79
2023-01-11T20:47:44.623Z,94.92
2023-01-11T20:50:11.873Z,94.49
2023-01-11T20:52:39.261Z,94.35
2023-01-11T20:55:07.386Z,94.06
2023-01-11T20:57:34.868Z,94.36
2023-01-11T21:00:02.009Z,94.46
2023-01-11T21:02:29.123Z,94.46
2023-01-11T21:04:57.232Z,94.24
2023-01-11T21:07:24.517Z,94.38
2023-01-11T21:09:51.505Z,94.66
2023-01-11T21:12:19.664Z,94.63
2023-01-11T21:14:46.535Z,95.15
2023-01-11T21:17:13.657Z,94.75
2023-01-11T21:19:40.999Z,95.20
2023-01-11T21:22:08.217Z,95.45
2023-01-11T21:24:38.768Z,95.72
2023-01-11T21:27:09.107Z,95.73
2023-01-11T21:29:36.490Z,94.76
2023-01-11T21:32:06.677Z,94.77
2023-01-11T21:34:33.874Z,94.70
2023-01-11T21:37:00.831Z,94.52
2023-01-11T21:39:27.915Z,94.63
2023-01-11T21:42:01.387Z,94.79
2023-01-11T21:44:31.889Z,95.15
2023-01-11T21:46:59.619Z,95.22
2023-01-11T21:49:26.615Z,95.16
2023-01-11T21:51:53.996Z,95.15
2023-01-11T21:54:21.337Z,95.20
2023-01-11T21:56:51.599Z,94.77
2023-01-11T21:59:18.599Z,95.15
2023-01-11T22:01:46.472Z,95.24
2023-01-11T22:04:14.944Z,95.37
2023-01-11T22:06:46.435Z,95.86
2023-01-11T22:09:13.641Z,95.40
2023-01-11T22:11:40.509Z,95.35
2023-01-11T22:14:08.923Z,95.36
2023-01-11T22:16:36.923Z,95.56
2023-01-11T22:19:06.313Z,95.47
2023-01-11T22:21:33.688Z,95.89
2023-01-11T22:24:00.615Z,95.67
2023-01-11T22:26:33.427Z,95.57
2023-01-11T22:29:13.022Z,95.65
2023-01-11T22:31:43.102Z,95.47
2023-01-11T22:34:10.904Z,95.57
2023-01-11T22:36:38.194Z,95.27
2023-01-11T22:39:05.206Z,95.55
2023-01-11T22:41:32.832Z,95.51
2023-01-11T22:43:59.652Z,95.43
2023-01-11T22:46:27.501Z,95.70
2023-01-11T22:48:54.252Z,95.43
2023-01-11T22:51:23.695Z,95.55
2023-01-11T22:53:51.948Z,95.29
2023-01-11T22:56:24.093Z,95.65
2023-01-11T22:58:54.767Z,95.49
2023-01-11T23:01:24.589Z,95.65
2023-01-11T23:03:53.263Z,96.33
2023-01-11T23:06:28.883Z,96.62
2023-01-11T23:09:01.479Z,96.67
2023-01-11T23:11:49.997Z,96.39
2023-01-11T23:14:19.092Z,96.75
2023-01-11T23:16:48.114Z,96.74
2023-01-11T23:19:17.582Z,95.87
2023-01-11T23:21:48.633Z,95.86
2023-01-11T23:24:17.167Z,95.90
2023-01-11T23:26:45.142Z,95.64
2023-01-11T23:29:12.375Z,95.79
2023-01-11T23:31:39.245Z,95.47
2023-01-11T23:34:09.275Z,95.50
2023-01-11T23:36:39.054Z,95.61
2023-01-11T23:39:07.736Z,95.43
2023-01-11T23:41:53.485Z,95.05
2023-01-11T23:44:20.669Z,95.42
2023-01-11T23:47:05.847Z,95.65
2023-01-11T23:49:32.945Z,95.12
2023-01-11T23:52:00.528Z,95.18
2023-01-11T23:54:30.154Z,94.98
2023-01-11T23:57:00.169Z,94.42
2023-01-11T23:59:27.462Z,94.65
